createdAt,value
2018-08-24T00:00:32.054Z,53.66
2018-08-24T00:03:02.382Z,53.15
2018-08-24T00:05:31.073Z,53.77
2018-08-24T00:08:00.325Z,53.93
2018-08-24T00:10:29.056Z,53.11
2018-08-24T00:12:57.652Z,54.17
2018-08-24T00:15:26.622Z,53.49
2018-08-24T00:17:55.498Z,54.04
2018-08-24T00:20:24.280Z,53.85
2018-08-24T00:22:52.942Z,53.63
2018-08-24T00:25:22.658Z,53.90
2018-08-24T00:27:51.368Z,53.53
2018-08-24T00:30:20.022Z,54.10
2018-08-24T00:32:48.679Z,54.84
2018-08-24T00:35:17.628Z,53.95
2018-08-24T00:37:46.908Z,54.11
2018-08-24T00:40:15.610Z,54.63
2018-08-24T00:42:44.385Z,54.29
2018-08-24T00:45:13.086Z,54.72
2018-08-24T00:47:41.973Z,55.00
2018-08-24T00:50:10.617Z,54.69
2018-08-24T00:52:39.577Z,55.06
2018-08-24T00:55:08.225Z,55.34
2018-08-24T00:57:37.999Z,55.61
2018-08-24T01:00:08.449Z,56.06
2018-08-24T01:02:44.166Z,56.17
2018-08-24T01:05:12.956Z,56.25
2018-08-24T01:07:46.656Z,56.20
2018-08-24T01:10:20.643Z,55.60
2018-08-24T01:12:50.065Z,56.62
2018-08-24T01:15:21.822Z,56.50
2018-08-24T01:17:55.628Z,56.32
2018-08-24T01:20:28.383Z,56.25
2018-08-24T01:22:57.346Z,56.00
2018-08-24T01:25:26.090Z,55.92
2018-08-24T01:27:54.694Z,55.96
2018-08-24T01:30:23.249Z,56.53
2018-08-24T01:32:51.948Z,55.90
2018-08-24T01:35:21.072Z,55.70
2018-08-24T01:37:49.819Z,56.09
2018-08-24T01:40:18.591Z,56.12
2018-08-24T01:42:47.673Z,55.81
2018-08-24T01:45:16.399Z,55.11
2018-08-24T01:47:45.177Z,56.45
2018-08-24T01:50:13.920Z,55.65
2018-08-24T01:52:42.538Z,55.58
2018-08-24T01:55:11.244Z,55.73
2018-08-24T01:57:40.780Z,55.85
2018-08-24T02:00:09.408Z,56.46
2018-08-24T02:02:38.080Z,56.46
2018-08-24T02:05:07.456Z,55.87
2018-08-24T02:07:37.003Z,56.71
2018-08-24T02:10:09.381Z,56.87
2018-08-24T02:12:43.234Z,56.68
2018-08-24T02:15:12.068Z,57.15
2018-08-24T02:17:45.913Z,56.22
2018-08-24T02:20:19.754Z,55.98
2018-08-24T02:22:54.505Z,56.54
2018-08-24T02:25:24.031Z,56.19
2018-08-24T02:27:54.727Z,56.73
2018-08-24T02:30:30.350Z,57.22
2018-08-24T02:32:59.891Z,57.14
2018-08-24T02:35:28.482Z,57.26
2018-08-24T02:37:57.160Z,56.76
2018-08-24T02:40:25.759Z,57.33
2018-08-24T02:42:54.526Z,57.14
2018-08-24T02:45:23.530Z,57.73
2018-08-24T02:47:53.455Z,57.41
2018-08-24T02:50:22.680Z,57.50
2018-08-24T02:52:51.600Z,58.53
2018-08-24T02:55:20.382Z,57.92
2018-08-24T02:57:49.075Z,57.89
2018-08-24T03:00:20.112Z,58.52
2018-08-24T03:02:48.807Z,59.61
2018-08-24T03:05:18.493Z,58.88
2018-08-24T03:07:47.316Z,59.14
2018-08-24T03:10:16.732Z,59.57
2018-08-24T03:12:45.929Z,59.37
2018-08-24T03:15:14.528Z,60.32
2018-08-24T03:17:48.466Z,59.55
2018-08-24T03:20:17.204Z,59.31
2018-08-24T03:22:46.092Z,59.77
2018-08-24T03:25:14.793Z,59.98
2018-08-24T03:27:43.578Z,60.14
2018-08-24T03:30:14.318Z,59.95
2018-08-24T03:32:43.101Z,59.49
2018-08-24T03:35:12.021Z,59.57
2018-08-24T03:37:40.677Z,59.82
2018-08-24T03:40:09.359Z,60.23
2018-08-24T03:42:38.039Z,60.19
2018-08-24T03:45:06.725Z,60.55
2018-08-24T03:47:35.453Z,59.93
2018-08-24T03:50:04.753Z,60.38
2018-08-24T03:52:34.812Z,59.85
2018-08-24T03:55:04.262Z,59.74
2018-08-24T03:57:32.829Z,60.00
2018-08-24T04:00:02.393Z,59.46
2018-08-24T04:02:30.924Z,60.06
2018-08-24T04:04:59.597Z,59.43
2018-08-24T04:07:28.446Z,60.36
2018-08-24T04:09:57.166Z,60.34
2018-08-24T04:12:26.270Z,59.57
2018-08-24T04:14:55.888Z,60.37
2018-08-24T04:17:29.820Z,61.25
2018-08-24T04:19:58.560Z,59.94
2018-08-24T04:22:28.137Z,60.44
2018-08-24T04:24:56.750Z,61.33
2018-08-24T04:27:25.354Z,60.33
2018-08-24T04:29:54.031Z,60.11
2018-08-24T04:32:22.818Z,60.48
2018-08-24T04:34:51.842Z,60.79
2018-08-24T04:37:21.099Z,60.44
2018-08-24T04:39:49.726Z,59.96
2018-08-24T04:42:20.561Z,59.90
2018-08-24T04:44:49.217Z,60.53
2018-08-24T04:47:18.048Z,59.24
2018-08-24T04:49:46.831Z,60.27
2018-08-24T04:52:15.415Z,60.15
2018-08-24T04:54:44.016Z,60.15
2018-08-24T04:57:12.579Z,59.82
2018-08-24T04:59:41.592Z,59.96
2018-08-24T05:02:11.231Z,58.11
2018-08-24T05:04:39.882Z,58.16
2018-08-24T05:07:08.492Z,57.95
2018-08-24T05:09:37.021Z,57.15
2018-08-24T05:12:07.141Z,56.98
2018-08-24T05:14:36.115Z,56.77
2018-08-24T05:17:04.701Z,56.17
2018-08-24T05:19:33.338Z,56.58
2018-08-24T05:22:01.954Z,56.08
2018-08-24T05:24:30.594Z,56.77
2018-08-24T05:26:59.135Z,56.78
2018-08-24T05:29:27.937Z,56.69
2018-08-24T05:31:56.665Z,56.32
2018-08-24T05:34:26.167Z,56.53
2018-08-24T05:36:54.752Z,55.94
2018-08-24T05:39:23.432Z,56.56
2018-08-24T05:41:52.037Z,56.79
2018-08-24T05:44:21.106Z,57.07
2018-08-24T05:46:49.695Z,56.78
2018-08-24T05:49:18.414Z,56.04
2018-08-24T05:51:47.659Z,56.01
2018-08-24T05:54:16.665Z,56.27
2018-08-24T05:56:45.464Z,57.08
2018-08-24T05:59:14.096Z,57.38
2018-08-24T06:01:43.964Z,57.76
2018-08-24T06:04:12.651Z,57.98
2018-08-24T06:06:41.794Z,58.15
2018-08-24T06:09:15.248Z,56.64
2018-08-24T06:11:44.439Z,55.96
2018-08-24T06:14:13.830Z,54.86
2018-08-24T06:16:50.546Z,54.88
2018-08-24T06:19:20.310Z,53.89
2018-08-24T06:21:49.290Z,53.20
2018-08-24T06:24:17.915Z,52.97
2018-08-24T06:26:46.419Z,53.25
2018-08-24T06:29:15.064Z,52.89
2018-08-24T06:31:43.652Z,53.06
2018-08-24T06:34:12.592Z,53.44
2018-08-24T06:36:41.855Z,54.10
2018-08-24T06:39:14.000Z,53.86
2018-08-24T06:41:43.934Z,53.23
2018-08-24T06:44:13.473Z,50.91
2018-08-24T06:46:42.468Z,51.46
2018-08-24T06:49:11.733Z,51.04
2018-08-24T06:51:40.973Z,51.18
2018-08-24T06:54:10.327Z,51.02
2018-08-24T06:56:40.434Z,50.46
2018-08-24T06:59:09.181Z,50.59
2018-08-24T07:01:37.859Z,50.15
2018-08-24T07:04:06.707Z,50.37
2018-08-24T07:06:35.448Z,50.40
2018-08-24T07:09:05.452Z,50.81
2018-08-24T07:11:34.648Z,50.71
2018-08-24T07:14:03.607Z,50.97
2018-08-24T07:16:32.133Z,50.45
2018-08-24T07:19:02.238Z,51.14
2018-08-24T07:21:31.096Z,50.80
2018-08-24T07:23:59.824Z,50.28
2018-08-24T07:26:29.288Z,51.27
2018-08-24T07:28:57.874Z,49.97
2018-08-24T07:31:27.884Z,50.45
2018-08-24T07:33:56.606Z,49.89
2018-08-24T07:36:25.611Z,50.94
2018-08-24T07:38:54.310Z,49.98
2018-08-24T07:41:22.819Z,49.92
2018-08-24T07:43:51.358Z,48.92
2018-08-24T07:46:20.558Z,48.32
2018-08-24T07:48:49.242Z,49.38
2018-08-24T07:51:17.838Z,47.96
2018-08-24T07:53:46.854Z,48.01
2018-08-24T07:56:15.544Z,47.60
2018-08-24T07:58:44.184Z,47.04
2018-08-24T08:01:13.094Z,46.39
2018-08-24T08:03:41.793Z,46.18
2018-08-24T08:06:11.472Z,46.57
2018-08-24T08:08:40.488Z,45.81
2018-08-24T08:11:09.680Z,46.04
2018-08-24T08:13:39.288Z,47.15
2018-08-24T08:16:07.869Z,46.25
2018-08-24T08:18:37.797Z,45.36
2018-08-24T08:21:07.129Z,46.84
2018-08-24T08:23:35.772Z,46.14
2018-08-24T08:26:04.416Z,46.38
2018-08-24T08:28:33.042Z,46.90
2018-08-24T08:31:02.585Z,45.92
2018-08-24T08:33:31.216Z,46.57
2018-08-24T08:36:00.202Z,46.03
2018-08-24T08:38:29.592Z,45.38
2018-08-24T08:40:58.995Z,46.52
2018-08-24T08:43:27.632Z,46.75
2018-08-24T08:45:56.277Z,46.53
2018-08-24T08:48:24.837Z,46.54
2018-08-24T08:50:54.548Z,46.01
2018-08-24T08:53:23.456Z,45.96
2018-08-24T08:55:53.031Z,45.30
2018-08-24T08:58:21.748Z,46.24
2018-08-24T09:00:50.422Z,46.11
2018-08-24T09:03:19.271Z,46.11
2018-08-24T09:05:47.794Z,45.82
2018-08-24T09:08:17.516Z,46.62
2018-08-24T09:10:46.398Z,46.25
2018-08-24T09:13:15.024Z,46.34
2018-08-24T09:15:47.415Z,46.14
2018-08-24T09:18:22.220Z,46.41
2018-08-24T09:20:56.224Z,46.92
2018-08-24T09:23:31.138Z,46.85
2018-08-24T09:26:05.006Z,47.05
2018-08-24T09:28:35.964Z,47.49
2018-08-24T09:31:22.326Z,46.98
2018-08-24T09:33:51.370Z,46.58
2018-08-24T09:36:21.093Z,46.25
2018-08-24T09:38:50.927Z,47.08
2018-08-24T09:41:20.189Z,46.46
2018-08-24T09:43:54.276Z,47.11
2018-08-24T09:46:28.034Z,46.84
2018-08-24T09:49:01.889Z,47.15
2018-08-24T09:51:30.453Z,47.35
2018-08-24T09:54:01.458Z,47.69
2018-08-24T09:56:30.872Z,47.16
2018-08-24T09:59:00.026Z,47.90
2018-08-24T10:05:33.773Z,48.47
2018-08-24T10:08:07.805Z,49.15
2018-08-24T10:10:36.379Z,49.88
2018-08-24T10:13:05.121Z,49.43
2018-08-24T10:15:33.699Z,50.47
2018-08-24T10:18:02.588Z,50.38
2018-08-24T10:20:31.267Z,51.71
2018-08-24T10:22:59.953Z,53.63
2018-08-24T10:25:28.672Z,58.39
2018-08-24T10:27:57.886Z,63.37
2018-08-24T10:30:26.418Z,67.60
2018-08-24T10:32:55.719Z,66.63
2018-08-24T10:35:24.388Z,70.25
2018-08-24T10:37:53.127Z,70.99
2018-08-24T10:40:21.711Z,71.85
2018-08-24T10:42:51.315Z,71.41
2018-08-24T10:45:20.373Z,73.36
2018-08-24T10:47:48.961Z,72.18
2018-08-24T10:50:17.491Z,71.43
2018-08-24T10:52:46.187Z,71.65
2018-08-24T10:55:17.065Z,72.46
2018-08-24T11:00:55.359Z,72.29
2018-08-24T11:03:24.819Z,72.31
2018-08-24T11:05:53.608Z,71.26
2018-08-24T11:08:22.276Z,71.25
2018-08-24T11:10:50.893Z,71.60
2018-08-24T11:13:26.353Z,71.27
2018-08-24T11:15:54.894Z,71.98
2018-08-24T11:18:24.568Z,71.87
2018-08-24T11:20:53.639Z,72.38
2018-08-24T11:23:22.308Z,72.77
2018-08-24T11:25:52.343Z,71.13
2018-08-24T11:28:22.269Z,71.05
2018-08-24T11:30:50.888Z,72.02
2018-08-24T11:33:19.476Z,70.06
2018-08-24T11:35:49.082Z,70.30
2018-08-24T11:38:17.921Z,69.43
2018-08-24T11:40:47.268Z,69.03
2018-08-24T11:43:16.724Z,66.93
2018-08-24T11:45:45.734Z,66.36
2018-08-24T11:48:15.431Z,66.06
2018-08-24T11:53:13.734Z,66.34
2018-08-24T11:55:42.416Z,66.07
2018-08-24T11:58:11.285Z,63.63
2018-08-24T12:00:40.439Z,61.61
2018-08-24T12:03:11.229Z,61.10
2018-08-24T12:05:39.826Z,59.15
2018-08-24T12:08:08.554Z,58.10
2018-08-24T12:10:44.043Z,57.30
2018-08-24T12:13:12.743Z,56.64
2018-08-24T12:15:42.423Z,54.94
2018-08-24T12:18:12.107Z,53.93
2018-08-24T12:20:41.458Z,53.82
2018-08-24T12:23:10.237Z,50.34
2018-08-24T12:25:38.868Z,49.37
2018-08-24T12:28:07.608Z,48.76
2018-08-24T12:30:37.584Z,48.41
2018-08-24T12:33:06.205Z,48.58
2018-08-24T12:35:34.910Z,46.95
2018-08-24T12:38:04.311Z,45.45
2018-08-24T12:40:32.942Z,45.78
2018-08-24T12:43:02.028Z,45.14
2018-08-24T12:45:30.914Z,44.91
2018-08-24T12:48:03.559Z,44.94
2018-08-24T12:50:33.810Z,43.61
2018-08-24T12:53:03.936Z,41.15
2018-08-24T12:55:33.045Z,38.68
2018-08-24T12:58:03.545Z,40.30
2018-08-24T13:00:32.304Z,40.14
2018-08-24T13:03:01.845Z,40.23
2018-08-24T13:05:30.579Z,40.42
2018-08-24T13:07:59.416Z,39.22
2018-08-24T13:10:32.815Z,38.67
2018-08-24T13:13:01.901Z,37.74
2018-08-24T13:15:31.352Z,36.74
2018-08-24T13:18:03.289Z,38.42
2018-08-24T13:20:32.152Z,37.61
2018-08-24T13:23:00.754Z,36.85
2018-08-24T13:25:30.974Z,36.19
2018-08-24T13:27:59.898Z,37.03
2018-08-24T13:30:28.562Z,36.75
2018-08-24T13:32:57.145Z,37.68
2018-08-24T13:35:26.008Z,36.18
2018-08-24T13:37:54.777Z,35.63
2018-08-24T13:40:23.457Z,35.74
2018-08-24T13:42:52.649Z,34.95
2018-08-24T13:45:21.345Z,33.37
2018-08-24T13:47:50.938Z,33.62
2018-08-24T13:50:19.497Z,33.69
2018-08-24T13:52:48.394Z,33.21
2018-08-24T13:55:17.089Z,33.02
2018-08-24T13:57:45.829Z,33.40
2018-08-24T14:00:14.707Z,33.25
2018-08-24T14:02:44.287Z,33.09
2018-08-24T14:05:13.592Z,33.20
2018-08-24T14:07:42.788Z,33.57
2018-08-24T14:10:12.782Z,32.69
2018-08-24T14:12:41.894Z,32.68
2018-08-24T14:15:10.855Z,32.70
2018-08-24T14:17:39.499Z,32.69
2018-08-24T14:20:08.663Z,32.84
2018-08-24T14:22:38.329Z,32.96
2018-08-24T14:25:07.959Z,31.74
2018-08-24T14:27:36.626Z,32.15
2018-08-24T14:30:07.385Z,31.77
2018-08-24T14:32:36.155Z,32.19
2018-08-24T14:35:05.058Z,31.92
2018-08-24T14:37:34.332Z,31.74
2018-08-24T14:40:04.571Z,32.16
2018-08-24T14:42:33.301Z,30.94
2018-08-24T14:45:02.349Z,31.39
2018-08-24T14:47:31.070Z,32.00
2018-08-24T14:49:59.935Z,31.86
2018-08-24T14:52:28.718Z,31.59
2018-08-24T14:54:59.829Z,31.98
2018-08-24T14:57:29.290Z,32.41
2018-08-24T15:00:00.546Z,32.30
2018-08-24T15:02:29.214Z,32.94
2018-08-24T15:04:59.304Z,33.14
2018-08-24T15:07:28.245Z,33.11
2018-08-24T15:09:57.598Z,32.96
2018-08-24T15:12:26.388Z,31.56
2018-08-24T15:14:56.729Z,31.80
2018-08-24T15:17:25.566Z,32.95
2018-08-24T15:19:54.379Z,32.51
2018-08-24T15:22:23.614Z,33.30
2018-08-24T15:24:52.188Z,33.89
2018-08-24T15:27:20.983Z,33.40
2018-08-24T15:29:49.685Z,33.68
2018-08-24T15:32:18.806Z,34.72
2018-08-24T15:34:47.493Z,35.83
2018-08-24T15:37:16.137Z,35.18
2018-08-24T15:39:45.102Z,36.02
2018-08-24T15:42:14.218Z,36.58
2018-08-24T15:44:43.416Z,36.66
2018-08-24T15:47:12.627Z,36.37
2018-08-24T15:49:41.285Z,36.32
2018-08-24T15:52:10.082Z,36.49
2018-08-24T15:54:38.917Z,36.23
2018-08-24T15:57:07.731Z,36.01
2018-08-24T15:59:36.537Z,36.50
2018-08-24T16:05:06.797Z,34.83
2018-08-24T16:07:39.758Z,35.84
2018-08-24T16:10:11.044Z,35.80
2018-08-24T16:12:41.005Z,35.85
2018-08-24T16:17:37.700Z,34.04
2018-08-24T16:20:07.722Z,35.51
2018-08-24T16:22:36.328Z,34.38
2018-08-24T16:25:06.156Z,33.84
2018-08-24T16:27:36.312Z,36.08
2018-08-24T16:30:06.847Z,35.81
2018-08-24T16:32:36.194Z,35.60
2018-08-24T16:35:04.897Z,36.87
2018-08-24T16:37:33.626Z,37.48
2018-08-24T16:40:03.017Z,38.31
2018-08-24T16:42:32.069Z,38.45
2018-08-24T16:45:00.912Z,39.22
2018-08-24T16:47:29.895Z,38.76
2018-08-24T16:49:58.604Z,38.90
2018-08-24T16:52:27.394Z,38.53
2018-08-24T16:54:56.041Z,39.19
2018-08-24T16:57:26.180Z,39.73
2018-08-24T16:59:54.845Z,39.91
2018-08-24T17:02:23.913Z,39.80
2018-08-24T17:04:53.065Z,39.11
2018-08-24T17:07:23.119Z,40.22
2018-08-24T17:09:51.716Z,39.31
2018-08-24T17:12:25.702Z,39.42
2018-08-24T17:14:54.415Z,38.89
2018-08-24T17:17:23.215Z,39.55
2018-08-24T17:19:52.845Z,40.49
2018-08-24T17:22:21.395Z,40.14
2018-08-24T17:24:50.202Z,40.46
2018-08-24T17:27:19.997Z,41.02
2018-08-24T17:29:48.911Z,40.91
2018-08-24T17:32:17.602Z,40.25
2018-08-24T17:34:46.220Z,41.46
2018-08-24T17:37:14.901Z,41.65
2018-08-24T17:39:44.031Z,41.35
2018-08-24T17:42:13.369Z,41.04
2018-08-24T17:44:43.021Z,42.17
2018-08-24T17:47:11.809Z,42.38
2018-08-24T17:49:40.500Z,42.04
2018-08-24T17:52:09.650Z,42.68
2018-08-24T17:54:38.859Z,42.77
2018-08-24T17:57:07.861Z,42.91
2018-08-24T17:59:36.553Z,42.90
2018-08-24T18:02:05.473Z,43.17
2018-08-24T18:04:34.414Z,43.24
2018-08-24T18:07:03.337Z,42.58
2018-08-24T18:09:33.228Z,43.34
2018-08-24T18:12:02.062Z,42.97
2018-08-24T18:14:30.687Z,43.33
2018-08-24T18:16:59.438Z,43.38
2018-08-24T18:19:29.424Z,43.65
2018-08-24T18:21:59.508Z,43.81
2018-08-24T18:24:33.663Z,43.83
2018-08-24T18:27:06.113Z,44.01
2018-08-24T18:29:34.818Z,44.09
2018-08-24T18:32:04.632Z,43.69
2018-08-24T18:34:34.089Z,42.97
2018-08-24T18:37:03.446Z,43.67
2018-08-24T18:39:33.318Z,43.37
2018-08-24T18:42:03.259Z,43.57
2018-08-24T18:44:33.359Z,43.35
2018-08-24T18:47:03.541Z,43.40
2018-08-24T18:49:36.867Z,43.75
2018-08-24T18:52:05.556Z,43.92
2018-08-24T18:54:34.614Z,44.18
2018-08-24T18:57:04.092Z,43.75
2018-08-24T18:59:34.040Z,44.13
2018-08-24T19:02:04.468Z,44.09
2018-08-24T19:04:34.529Z,43.77
2018-08-24T19:07:03.969Z,44.22
2018-08-24T19:09:34.964Z,44.26
2018-08-24T19:12:11.036Z,43.66
2018-08-24T19:14:39.669Z,44.06
2018-08-24T19:17:14.002Z,43.76
2018-08-24T19:19:47.877Z,43.85
2018-08-24T19:22:16.469Z,44.47
2018-08-24T19:24:45.519Z,44.03
2018-08-24T19:27:15.936Z,44.32
2018-08-24T19:29:51.737Z,44.03
2018-08-24T19:32:24.700Z,43.26
2018-08-24T19:34:53.732Z,43.32
2018-08-24T19:37:25.105Z,43.85
2018-08-24T19:40:00.376Z,43.81
2018-08-24T19:42:32.434Z,43.52
2018-08-24T19:45:01.632Z,43.83
2018-08-24T19:47:35.944Z,43.83
2018-08-24T19:50:04.686Z,43.63
2018-08-24T19:52:33.604Z,43.71
2018-08-24T19:55:02.982Z,44.03
2018-08-24T19:57:40.852Z,44.09
2018-08-24T20:00:09.466Z,44.34
2018-08-24T20:02:38.041Z,44.58
2018-08-24T20:05:06.877Z,44.56
2018-08-24T20:07:40.670Z,44.57
2018-08-24T20:10:11.785Z,43.74
2018-08-24T20:12:40.519Z,44.19
2018-08-24T20:15:14.388Z,44.64
2018-08-24T20:17:43.012Z,44.33
2018-08-24T20:20:11.658Z,44.75
2018-08-24T20:22:40.801Z,44.27
2018-08-24T20:25:09.531Z,44.03
2018-08-24T20:27:40.674Z,44.67
2018-08-24T20:30:09.509Z,44.69
2018-08-24T20:32:38.254Z,44.63
2018-08-24T20:35:07.436Z,44.13
2018-08-24T20:37:36.204Z,44.09
2018-08-24T20:40:07.255Z,44.35
2018-08-24T20:42:36.884Z,44.27
2018-08-24T20:45:05.620Z,44.22
2018-08-24T20:47:34.161Z,44.36
2018-08-24T20:50:02.811Z,44.59
2018-08-24T20:52:31.414Z,45.17
2018-08-24T20:55:00.093Z,44.50
2018-08-24T20:57:29.060Z,44.61
2018-08-24T20:59:57.624Z,45.14
2018-08-24T21:02:26.544Z,44.87
2018-08-24T21:04:55.280Z,44.84
2018-08-24T21:07:23.889Z,44.83
2018-08-24T21:09:52.534Z,45.99
2018-08-24T21:12:21.340Z,45.28
2018-08-24T21:14:50.016Z,45.62
2018-08-24T21:17:18.583Z,45.61
2018-08-24T21:19:47.160Z,45.62
2018-08-24T21:22:16.225Z,45.94
2018-08-24T21:24:44.961Z,45.37
2018-08-24T21:27:13.667Z,45.67
2018-08-24T21:29:42.343Z,46.48
2018-08-24T21:32:11.264Z,45.91
2018-08-24T21:34:40.462Z,46.28
2018-08-24T21:37:13.805Z,46.00
2018-08-24T21:39:46.742Z,46.00
2018-08-24T21:42:28.577Z,45.89
2018-08-24T21:44:57.239Z,46.35
2018-08-24T21:47:25.800Z,46.76
2018-08-24T21:49:54.311Z,46.58
2018-08-24T21:52:23.031Z,47.03
2018-08-24T21:54:51.605Z,47.36
2018-08-24T21:57:20.177Z,46.89
2018-08-24T21:59:49.034Z,47.70
2018-08-24T22:02:17.562Z,47.43
2018-08-24T22:04:46.778Z,48.03
2018-08-24T22:07:15.502Z,48.83
2018-08-24T22:09:44.174Z,48.82
2018-08-24T22:12:13.027Z,49.03
2018-08-24T22:14:42.054Z,48.82
2018-08-24T22:17:10.778Z,49.45
2018-08-24T22:19:39.495Z,48.46
2018-08-24T22:22:08.467Z,48.74
2018-08-24T22:24:37.307Z,47.43
2018-08-24T22:27:06.066Z,47.77
2018-08-24T22:29:34.725Z,47.60
2018-08-24T22:32:04.017Z,48.48
2018-08-24T22:34:33.405Z,47.54
2018-08-24T22:37:02.301Z,47.47
2018-08-24T22:39:31.016Z,47.65
2018-08-24T22:41:59.682Z,47.94
2018-08-24T22:44:28.177Z,49.42
2018-08-24T22:46:56.758Z,48.16
2018-08-24T22:49:25.313Z,49.08
2018-08-24T22:51:54.524Z,48.48
2018-08-24T22:54:23.125Z,48.27
2018-08-24T22:56:51.695Z,49.04
2018-08-24T22:59:20.268Z,48.37
2018-08-24T23:01:48.809Z,47.60
2018-08-24T23:04:17.560Z,47.26
2018-08-24T23:06:46.091Z,48.17
2018-08-24T23:09:14.703Z,48.01
2018-08-24T23:11:43.217Z,48.02
2018-08-24T23:14:11.898Z,47.79
2018-08-24T23:16:41.522Z,47.56
2018-08-24T23:19:10.060Z,47.49
2018-08-24T23:21:38.628Z,48.08
2018-08-24T23:24:07.215Z,48.32
2018-08-24T23:26:36.489Z,48.09
2018-08-24T23:29:05.255Z,48.18
2018-08-24T23:31:33.946Z,48.63
2018-08-24T23:34:03.638Z,48.02
2018-08-24T23:36:32.348Z,47.50
2018-08-24T23:39:01.986Z,47.29
2018-08-24T23:41:30.596Z,47.51
2018-08-24T23:43:59.354Z,47.05
2018-08-24T23:46:28.495Z,47.69
2018-08-24T23:48:57.672Z,47.59
2018-08-24T23:51:26.381Z,47.54
2018-08-24T23:53:55.710Z,46.87
2018-08-24T23:56:25.291Z,46.75
2018-08-24T23:58:53.867Z,47.14
